Time;durP1;ratioP1;P1;durP2;ratioP2;P2;SDS_P1;SDS_P2;PMS_P1;PMS_P2;Temp;Humidity;BMP_temperature;BMP_pressure;BME280_temperature;BME280_humidity;BME280_pressure;Samples;Min_cycle;Max_cycle;Signal;HPM_P1;HPM_P2
2021/11/12 00:02:13;;;;;;;75.38;36.53;;;3.70;99.90;;;;;;5023222;28;20280;-84
2021/11/12 00:12:20;;;;;;;77.25;41.13;;;3.70;99.90;;;;;;5018595;28;20197;-83
2021/11/12 00:14:46;;;;;;;83.85;39.50;;;3.70;99.90;;;;;;5022269;28;20263;-83
2021/11/12 00:17:18;;;;;;;74.45;37.75;;;3.70;99.90;;;;;;5023683;28;20311;-84
2021/11/12 00:19:48;;;;;;;72.70;38.88;;;3.70;99.90;;;;;;5023317;28;20256;-83
2021/11/12 00:22:16;;;;;;;77.75;39.25;;;3.70;99.90;;;;;;5006552;28;20189;-83
2021/11/12 00:24:43;;;;;;;80.68;38.92;;;3.60;99.90;;;;;;5001159;28;20225;-83
2021/11/12 00:27:10;;;;;;;80.53;39.80;;;3.60;99.90;;;;;;5010350;28;20205;-83
2021/11/12 00:29:59;;;;;;;77.53;38.65;;;3.60;99.90;;;;;;5010224;28;20387;-83
2021/11/12 00:32:57;;;;;;;78.80;40.30;;;3.60;99.90;;;;;;5026973;28;20205;-83
2021/11/12 00:35:31;;;;;;;98.43;46.65;;;3.60;99.90;;;;;;5002874;28;20348;-83
2021/11/12 00:43:28;;;;;;;81.40;38.28;;;3.40;99.90;;;;;;5027681;28;20360;-83
2021/11/12 00:48:45;;;;;;;74.82;37.92;;;3.40;99.90;;;;;;5023853;28;20290;-83
2021/11/12 00:51:20;;;;;;;81.70;40.67;;;3.40;99.90;;;;;;5018689;28;20221;-83
2021/11/12 00:56:19;;;;;;;74.47;39.47;;;3.30;99.90;;;;;;5026972;28;20451;-83
2021/11/12 00:58:46;;;;;;;86.68;42.92;;;3.20;99.90;;;;;;5009210;28;20231;-82
2021/11/12 01:01:14;;;;;;;80.03;42.90;;;3.10;99.90;;;;;;5026758;28;20224;-83
2021/11/12 01:03:42;;;;;;;91.55;45.08;;;3.00;99.90;;;;;;5026600;28;20201;-83
2021/11/12 01:06:09;;;;;;;84.53;42.17;;;3.10;99.90;;;;;;5025808;28;20271;-82
2021/11/12 01:08:37;;;;;;;99.35;48.15;;;3.10;99.90;;;;;;5026126;28;20201;-83
2021/11/12 01:11:05;;;;;;;85.93;45.15;;;3.10;99.90;;;;;;5024969;28;20198;-84
2021/11/12 01:13:34;;;;;;;95.70;46.20;;;3.20;99.90;;;;;;5026423;28;20201;-84
2021/11/12 01:16:03;;;;;;;86.05;45.15;;;3.20;99.90;;;;;;5026746;28;20243;-84
2021/11/12 01:18:31;;;;;;;100.88;48.63;;;3.20;99.90;;;;;;5026273;28;20259;-84
2021/11/12 01:20:58;;;;;;;112.88;51.60;;;3.30;99.90;;;;;;5021633;28;20216;-83
2021/11/12 01:23:26;;;;;;;103.68;50.63;;;3.10;99.90;;;;;;5001337;28;20224;-84
2021/11/12 01:25:54;;;;;;;92.05;48.13;;;3.00;99.90;;;;;;5008945;28;20530;-84
2021/11/12 01:28:22;;;;;;;103.80;46.50;;;2.90;99.90;;;;;;5024373;28;20208;-83
2021/11/12 01:30:49;;;;;;;87.97;47.65;;;2.90;99.90;;;;;;5018873;28;20241;-84
2021/11/12 01:33:16;;;;;;;99.90;53.38;;;2.90;99.90;;;;;;5024678;28;20216;-84
2021/11/12 01:35:44;;;;;;;93.45;51.20;;;2.90;99.90;;;;;;5019381;28;20414;-84
2021/11/12 01:38:11;;;;;;;100.53;43.58;;;2.80;99.90;;;;;;5025274;28;20220;-84
2021/11/12 01:40:38;;;;;;;104.68;48.95;;;2.90;99.90;;;;;;5025346;28;20267;-82
2021/11/12 01:43:11;;;;;;;90.95;47.42;;;3.00;99.90;;;;;;5025251;28;20384;-82
2021/11/12 01:51:39;;;;;;;105.82;47.92;;;3.20;99.90;;;;;;5025064;28;20611;-82
2021/11/12 01:59:22;;;;;;;106.00;47.95;;;3.60;99.90;;;;;;5016669;28;20423;-83
2021/11/12 02:01:58;;;;;;;98.72;49.53;;;3.70;99.90;;;;;;5007203;28;20220;-83
2021/11/12 02:04:29;;;;;;;92.78;49.30;;;3.70;99.90;;;;;;5024946;28;20216;-83
2021/11/12 02:06:58;;;;;;;91.13;47.63;;;3.60;99.90;;;;;;5008261;28;20212;-82
2021/11/12 02:09:27;;;;;;;81.68;41.03;;;3.50;99.90;;;;;;5016516;28;20606;-82
2021/11/12 02:12:05;;;;;;;81.38;41.83;;;3.40;99.90;;;;;;5024069;28;20619;-82
2021/11/12 02:14:33;;;;;;;75.40;42.58;;;3.40;99.90;;;;;;5024270;28;20205;-82
2021/11/12 02:17:13;;;;;;;76.70;42.95;;;3.20;99.90;;;;;;4999222;28;20216;-81
2021/11/12 02:19:54;;;;;;;85.90;43.75;;;3.00;99.90;;;;;;4998241;28;20541;-84
2021/11/12 02:22:25;;;;;;;86.95;43.50;;;2.90;99.90;;;;;;5024152;28;20227;-84
2021/11/12 02:24:57;;;;;;;73.38;39.70;;;2.70;99.90;;;;;;5022652;28;20240;-81
2021/11/12 02:27:30;;;;;;;86.80;42.55;;;2.70;99.90;;;;;;5016224;28;20255;-81
2021/11/12 02:29:57;;;;;;;91.93;43.28;;;2.80;99.90;;;;;;5023220;28;20244;-84
2021/11/12 02:32:27;;;;;;;79.10;40.85;;;2.70;99.90;;;;;;5024503;28;20379;-84
2021/11/12 02:34:59;;;;;;;75.18;40.45;;;2.80;99.90;;;;;;5023834;28;20208;-83
2021/11/12 02:37:31;;;;;;;68.63;40.50;;;2.80;99.90;;;;;;5024503;28;20209;-81
2021/11/12 02:39:58;;;;;;;89.10;44.28;;;2.70;99.90;;;;;;5022807;28;20275;-82
2021/11/12 02:42:27;;;;;;;73.60;40.28;;;2.80;99.90;;;;;;5018932;28;20312;-81
2021/11/12 02:44:55;;;;;;;84.93;43.80;;;2.80;99.90;;;;;;5019880;28;20578;-83
2021/11/12 02:47:23;;;;;;;83.05;43.85;;;2.80;99.90;;;;;;5023178;28;20229;-83
2021/11/12 02:49:53;;;;;;;83.70;43.63;;;2.80;99.90;;;;;;5024196;28;20201;-82
2021/11/12 02:52:20;;;;;;;89.25;48.45;;;2.80;99.90;;;;;;5006753;28;20200;-83
2021/11/12 02:54:48;;;;;;;82.10;44.30;;;2.80;99.90;;;;;;5024331;28;20290;-82
2021/11/12 02:57:16;;;;;;;88.05;46.17;;;2.80;99.90;;;;;;5023404;28;20244;-82
2021/11/12 02:59:44;;;;;;;75.53;40.28;;;2.80;99.90;;;;;;5023443;28;20201;-82
2021/11/12 03:02:11;;;;;;;95.53;46.58;;;2.70;99.90;;;;;;5023224;28;20312;-82
2021/11/12 03:04:40;;;;;;;91.50;48.63;;;2.70;99.90;;;;;;5005386;28;20477;-82
2021/11/12 03:07:07;;;;;;;85.47;44.30;;;2.70;99.90;;;;;;5022975;28;20255;-82
2021/11/12 03:09:35;;;;;;;83.95;42.13;;;2.70;99.90;;;;;;5016792;28;20268;-82
2021/11/12 03:12:05;;;;;;;83.07;43.08;;;2.60;99.90;;;;;;5022508;28;20201;-82
2021/11/12 03:14:32;;;;;;;80.95;45.47;;;2.60;99.90;;;;;;5023186;28;20217;-82
2021/11/12 03:17:01;;;;;;;76.53;42.28;;;2.50;99.90;;;;;;5023243;28;20205;-81
2021/11/12 03:19:30;;;;;;;80.47;40.65;;;2.50;99.90;;;;;;5018640;28;20205;-82
2021/11/12 03:22:09;;;;;;;94.25;45.58;;;2.50;99.90;;;;;;5012041;28;20439;-83
2021/11/12 03:24:41;;;;;;;78.53;40.33;;;2.50;99.90;;;;;;5023996;28;20205;-81
2021/11/12 03:27:49;;;;;;;90.43;44.00;;;2.50;99.90;;;;;;5028191;28;20255;-82
2021/11/12 04:00:44;;;;;;;83.78;42.97;;;2.40;99.90;;;;;;5016442;28;20205;-81
2021/11/12 04:20:23;;;;;;;83.82;43.45;;;1.80;99.90;;;;;;5016121;28;20208;-82
2021/11/12 04:49:14;;;;;;;81.00;45.58;;;1.90;99.90;;;;;;5010062;28;20439;-83
2021/11/12 05:12:13;;;;;;;84.43;46.05;;;1.80;99.90;;;;;;5024835;28;20208;-81
2021/11/12 05:50:11;;;;;;;112.38;47.92;;;2.30;99.90;;;;;;5024571;28;20208;-81
2021/11/12 05:55:24;;;;;;;92.97;47.22;;;2.10;99.90;;;;;;5024447;28;20201;-82
2021/11/12 05:57:51;;;;;;;112.97;53.67;;;2.30;99.90;;;;;;5024354;28;20490;-85
2021/11/12 06:00:19;;;;;;;104.07;53.45;;;2.40;99.90;;;;;;5024234;28;20193;-82
2021/11/12 06:02:46;;;;;;;102.88;47.65;;;2.50;99.90;;;;;;5022674;28;20224;-82
2021/11/12 06:05:17;;;;;;;92.63;50.10;;;2.50;99.90;;;;;;5022406;28;20209;-82
2021/11/12 06:07:47;;;;;;;90.20;48.00;;;2.50;99.90;;;;;;5023099;28;20545;-83
2021/11/12 06:10:17;;;;;;;86.85;47.75;;;2.60;99.90;;;;;;5023438;28;20243;-83
2021/11/12 06:12:46;;;;;;;100.88;48.65;;;2.60;99.90;;;;;;5022949;28;20205;-83
2021/11/12 06:15:14;;;;;;;96.15;49.15;;;2.70;99.90;;;;;;5018175;28;20209;-82
2021/11/12 06:17:42;;;;;;;88.68;48.97;;;2.90;99.90;;;;;;5023661;28;20490;-82
2021/11/12 06:20:11;;;;;;;95.50;49.95;;;3.10;99.90;;;;;;5022246;28;20506;-83
2021/11/12 06:22:38;;;;;;;102.68;46.55;;;3.30;99.90;;;;;;5022108;28;20264;-82
2021/11/12 06:25:06;;;;;;;95.28;46.90;;;3.50;99.90;;;;;;5006151;28;20247;-82
2021/11/12 06:27:34;;;;;;;105.97;49.05;;;3.40;99.90;;;;;;5022712;28;20224;-82
2021/11/12 06:30:05;;;;;;;88.35;46.85;;;3.40;99.90;;;;;;5023176;28;20451;-83
2021/11/12 06:32:32;;;;;;;102.07;44.72;;;3.50;99.90;;;;;;5023346;28;20208;-82
2021/11/12 06:35:00;;;;;;;94.97;48.42;;;3.70;99.90;;;;;;5022830;28;20490;-84
2021/11/12 06:37:28;;;;;;;114.63;51.17;;;3.90;99.90;;;;;;5022913;28;20255;-84
2021/11/12 06:39:55;;;;;;;95.90;47.97;;;4.10;99.90;;;;;;5004524;28;20208;-83
2021/11/12 06:42:24;;;;;;;123.20;52.17;;;4.00;99.90;;;;;;5023278;28;20201;-84
2021/11/12 06:50:24;;;;;;;87.85;45.15;;;4.00;99.90;;;;;;5017112;28;20201;-84
2021/11/12 06:52:52;;;;;;;90.05;43.58;;;3.80;99.90;;;;;;5024409;28;20206;-82
2021/11/12 06:55:20;;;;;;;81.60;41.50;;;3.60;99.90;;;;;;5015791;28;20267;-82
2021/11/12 06:57:48;;;;;;;86.75;44.63;;;3.70;99.90;;;;;;5024441;28;20206;-83
2021/11/12 07:00:19;;;;;;;92.35;43.75;;;3.70;99.90;;;;;;5006665;28;20499;-83
2021/11/12 07:02:47;;;;;;;87.65;45.22;;;4.10;99.90;;;;;;5024243;28;20296;-84
2021/11/12 07:05:16;;;;;;;83.05;42.72;;;4.30;99.90;;;;;;5023202;28;20220;-84
2021/11/12 07:07:45;;;;;;;89.75;43.25;;;4.50;99.90;;;;;;5005944;28;20229;-85
2021/11/12 07:10:13;;;;;;;91.88;41.55;;;4.70;99.90;;;;;;5023356;28;20203;-85
2021/11/12 07:12:41;;;;;;;86.53;39.72;;;4.70;99.90;;;;;;5001114;28;20503;-85
2021/11/12 07:15:09;;;;;;;88.22;40.58;;;4.40;99.90;;;;;;5005459;28;20447;-84
2021/11/12 07:17:38;;;;;;;84.78;41.92;;;4.50;99.90;;;;;;5004727;28;20392;-84
2021/11/12 07:20:06;;;;;;;80.70;40.50;;;4.80;99.90;;;;;;5022731;28;20214;-84
2021/11/12 07:22:33;;;;;;;81.03;36.83;;;5.10;99.90;;;;;;5016916;28;20207;-84
2021/11/12 07:25:01;;;;;;;69.60;36.40;;;5.10;99.90;;;;;;5022811;28;20230;-84
2021/11/12 07:27:29;;;;;;;68.97;37.58;;;5.20;99.90;;;;;;5022553;28;20527;-84
2021/11/12 07:30:19;;;;;;;70.07;36.63;;;5.00;99.90;;;;;;5008105;28;20211;-83
2021/11/12 07:32:47;;;;;;;62.95;34.58;;;5.30;99.90;;;;;;5010146;28;20241;-84
2021/11/12 07:35:18;;;;;;;63.75;34.83;;;5.40;99.90;;;;;;5015793;28;20213;-83
2021/11/12 07:37:46;;;;;;;66.03;35.88;;;5.40;99.90;;;;;;5005043;28;20207;-83
2021/11/12 07:40:23;;;;;;;61.25;35.65;;;5.50;99.90;;;;;;5005381;28;20546;-84
2021/11/12 07:43:17;;;;;;;60.97;33.83;;;5.60;99.90;;;;;;5022055;28;20210;-84
2021/11/12 07:45:51;;;;;;;73.20;33.05;;;5.90;99.90;;;;;;5022331;28;20250;-84
2021/11/12 07:48:19;;;;;;;58.22;32.65;;;6.10;99.90;;;;;;5014201;28;20490;-84
2021/11/12 07:50:46;;;;;;;62.03;33.72;;;6.00;99.90;;;;;;5022577;28;20204;-84
2021/11/12 07:53:13;;;;;;;71.10;35.13;;;5.90;99.90;;;;;;5021772;28;20204;-85
2021/11/12 07:55:40;;;;;;;61.88;34.85;;;5.80;99.90;;;;;;5026619;28;20200;-84
2021/11/12 07:58:07;;;;;;;62.55;34.22;;;5.80;99.90;;;;;;5022973;28;20201;-84
2021/11/12 08:00:35;;;;;;;60.72;32.45;;;6.00;99.90;;;;;;5005239;28;20211;-84
2021/11/12 08:03:03;;;;;;;60.83;35.47;;;6.10;99.90;;;;;;5022242;28;20215;-85
2021/11/12 08:05:36;;;;;;;60.50;36.00;;;6.20;99.90;;;;;;5018522;28;20355;-84
2021/11/12 08:08:08;;;;;;;56.75;32.60;;;6.50;99.90;;;;;;5020367;28;20271;-83
2021/11/12 08:10:46;;;;;;;52.78;35.13;;;6.70;99.90;;;;;;5022347;28;20355;-83
2021/11/12 08:13:21;;;;;;;57.38;32.33;;;6.70;99.90;;;;;;5005219;28;20199;-87
2021/11/12 08:15:57;;;;;;;51.40;33.03;;;6.70;99.90;;;;;;5020628;28;20232;-85
2021/11/12 08:21:11;;;;;;;55.17;31.48;;;6.70;99.90;;;;;;5014662;28;20208;-85
2021/11/12 08:26:38;;;;;;;61.40;32.42;;;6.80;99.90;;;;;;5018662;28;20547;-83
2021/11/12 08:29:23;;;;;;;52.40;31.38;;;6.60;99.90;;;;;;5021710;28;20193;-85
2021/11/12 08:32:19;;;;;;;61.03;33.50;;;6.60;99.90;;;;;;5021314;28;20321;-85
2021/11/12 08:43:37;;;;;;;56.13;29.27;;;7.50;99.90;;;;;;4925712;29;20274;-83
2021/11/12 08:46:18;;;;;;;47.28;28.20;;;7.20;99.90;;;;;;4988060;28;20211;-85
2021/11/12 08:51:18;;;;;;;43.70;24.77;;;7.40;99.90;;;;;;5025947;28;20196;-84
2021/11/12 08:53:47;;;;;;;50.92;29.38;;;7.70;99.90;;;;;;5008107;28;20221;-86
2021/11/12 08:56:17;;;;;;;37.17;24.13;;;7.70;99.90;;;;;;5025324;28;20205;-87
2021/11/12 08:58:50;;;;;;;43.03;26.25;;;7.50;99.90;;;;;;5025383;28;20201;-86
2021/11/12 09:01:18;;;;;;;45.22;25.80;;;7.40;99.90;;;;;;5017672;28;20212;-83
2021/11/12 09:03:47;;;;;;;53.30;29.40;;;7.50;99.90;;;;;;5025772;28;20472;-83
2021/11/12 09:06:15;;;;;;;44.65;26.90;;;7.50;99.90;;;;;;5026209;28;20243;-84
2021/11/12 09:08:42;;;;;;;46.53;25.98;;;7.90;99.90;;;;;;5024697;28;20483;-85
2021/11/12 09:11:10;;;;;;;39.67;24.25;;;8.10;99.90;;;;;;5017570;28;20197;-83
2021/11/12 09:13:51;;;;;;;41.88;25.10;;;8.10;99.90;;;;;;5007797;28;20352;-86
2021/11/12 09:16:19;;;;;;;42.17;26.02;;;8.00;99.90;;;;;;5025670;28;20243;-84
2021/11/12 09:18:48;;;;;;;40.70;23.05;;;8.10;99.90;;;;;;5007125;28;20197;-84
2021/11/12 09:21:17;;;;;;;42.80;26.02;;;8.20;99.90;;;;;;5024795;28;20211;-84
2021/11/12 09:23:45;;;;;;;51.42;28.35;;;8.30;99.90;;;;;;5020407;28;20208;-84
2021/11/12 09:26:12;;;;;;;53.75;33.47;;;8.50;99.90;;;;;;5017454;28;20236;-85
2021/11/12 09:28:40;;;;;;;48.88;29.50;;;8.50;99.90;;;;;;5024530;28;20225;-86
2021/11/12 09:31:10;;;;;;;43.35;25.00;;;8.40;99.90;;;;;;5017811;28;20248;-86
2021/11/12 09:33:39;;;;;;;41.97;28.00;;;8.30;99.90;;;;;;5017818;28;20189;-85
2021/11/12 09:36:08;;;;;;;50.97;30.98;;;8.10;99.90;;;;;;4981055;28;20258;-87
2021/11/12 09:38:40;;;;;;;46.78;27.67;;;7.90;99.90;;;;;;5017624;28;20264;-87
2021/11/12 09:41:08;;;;;;;46.17;27.10;;;7.60;99.90;;;;;;5001217;28;20210;-85
2021/11/12 09:43:37;;;;;;;44.80;26.70;;;7.60;99.90;;;;;;5004860;28;20201;-86
2021/11/12 09:46:05;;;;;;;42.63;26.10;;;7.80;99.90;;;;;;5025925;28;20205;-84
2021/11/12 09:48:34;;;;;;;44.85;26.95;;;8.00;99.90;;;;;;5020885;28;20228;-84
2021/11/12 09:51:01;;;;;;;40.47;25.88;;;8.10;99.90;;;;;;5024358;28;20223;-85
2021/11/12 09:53:29;;;;;;;43.63;25.88;;;7.90;99.90;;;;;;5007086;28;20247;-85
2021/11/12 09:55:56;;;;;;;44.90;27.73;;;7.90;99.90;;;;;;5005602;28;20208;-86
2021/11/12 09:58:24;;;;;;;46.17;26.63;;;7.80;99.90;;;;;;5024252;28;20275;-84
2021/11/12 10:00:59;;;;;;;47.03;25.20;;;7.70;99.90;;;;;;5024709;28;20205;-85
2021/11/12 10:03:43;;;;;;;51.80;29.08;;;7.70;99.90;;;;;;5002603;28;20521;-84
2021/11/12 10:06:19;;;;;;;44.78;26.63;;;7.70;99.90;;;;;;5023733;28;20201;-86
2021/11/12 10:08:48;;;;;;;47.35;27.40;;;7.90;99.90;;;;;;5023949;28;20224;-87
2021/11/12 10:11:23;;;;;;;43.95;27.98;;;8.00;99.90;;;;;;5020932;28;20209;-83
2021/11/12 10:14:08;;;;;;;45.83;26.25;;;8.10;99.90;;;;;;5023010;28;20196;-85
2021/11/12 10:16:35;;;;;;;44.38;24.23;;;8.10;99.90;;;;;;5018224;28;20200;-84
2021/11/12 10:19:09;;;;;;;46.85;27.08;;;8.00;99.90;;;;;;5014287;28;20264;-81
2021/11/12 10:21:44;;;;;;;47.70;26.23;;;7.90;99.90;;;;;;5022967;28;20217;-85
2021/11/12 10:24:17;;;;;;;40.72;24.60;;;7.80;99.90;;;;;;5024845;28;20268;-84
2021/11/12 10:26:48;;;;;;;43.85;26.35;;;7.80;99.90;;;;;;5006100;28;20197;-85
2021/11/12 10:29:24;;;;;;;40.03;24.17;;;7.90;99.90;;;;;;5019554;28;20219;-84
2021/11/12 10:31:57;;;;;;;44.00;26.05;;;8.00;99.90;;;;;;5015049;28;20237;-82
2021/11/12 10:34:33;;;;;;;43.55;25.27;;;8.00;99.90;;;;;;5016079;28;20268;-85
2021/11/12 10:37:05;;;;;;;41.33;25.10;;;7.80;99.90;;;;;;4995526;28;20901;-83
2021/11/12 10:39:41;;;;;;;40.40;22.92;;;7.90;99.90;;;;;;5016771;28;20213;-85
2021/11/12 10:42:18;;;;;;;41.78;22.58;;;7.80;99.90;;;;;;5005381;28;20260;-84
2021/11/12 10:44:54;;;;;;;45.10;27.92;;;7.90;99.90;;;;;;5017609;28;20212;-86
2021/11/12 10:47:22;;;;;;;39.45;24.33;;;8.00;99.90;;;;;;5021533;28;20235;-84
2021/11/12 10:49:56;;;;;;;44.00;26.80;;;8.30;99.90;;;;;;5017939;28;20243;-85
2021/11/12 10:52:29;;;;;;;39.17;22.17;;;8.40;99.90;;;;;;5022021;28;20221;-83
2021/11/12 10:55:13;;;;;;;34.53;21.63;;;8.40;99.90;;;;;;5004153;28;20201;-83
2021/11/12 10:57:47;;;;;;;38.85;21.58;;;8.50;99.90;;;;;;5010924;28;20212;-83
2021/11/12 11:00:18;;;;;;;38.63;24.08;;;8.70;99.90;;;;;;5021590;28;20208;-86
2021/11/12 11:02:50;;;;;;;31.40;21.58;;;8.90;99.90;;;;;;5011559;28;20244;-83
2021/11/12 11:05:25;;;;;;;41.28;24.17;;;8.80;99.90;;;;;;5021226;28;20268;-85
2021/11/12 11:08:01;;;;;;;34.53;21.75;;;9.00;99.90;;;;;;5017159;28;20482;-85
2021/11/12 11:10:28;;;;;;;34.35;22.05;;;9.30;99.90;;;;;;5021295;28;20205;-85
2021/11/12 11:13:02;;;;;;;35.45;22.55;;;9.70;99.90;;;;;;5003533;28;20505;-85
2021/11/12 11:15:33;;;;;;;34.95;22.65;;;9.30;99.90;;;;;;5020771;28;20425;-82
2021/11/12 11:20:52;;;;;;;37.80;23.40;;;9.30;99.90;;;;;;5020682;28;20641;-83
2021/11/12 11:23:21;;;;;;;34.55;22.35;;;9.50;99.90;;;;;;5013948;28;20507;-84
2021/11/12 11:25:59;;;;;;;35.58;20.95;;;9.70;99.90;;;;;;5003388;28;20206;-80
2021/11/12 11:28:28;;;;;;;31.45;21.88;;;9.90;99.90;;;;;;5021422;28;20224;-84
2021/11/12 11:30:56;;;;;;;38.47;22.48;;;9.70;99.90;;;;;;5003205;28;20205;-86
2021/11/12 11:33:24;;;;;;;42.15;23.33;;;9.90;99.90;;;;;;5003303;28;20220;-83
2021/11/12 11:35:55;;;;;;;31.40;20.05;;;9.90;99.90;;;;;;5019563;28;20197;-83
2021/11/12 11:38:28;;;;;;;39.00;22.25;;;9.60;99.90;;;;;;5019910;28;20201;-83
2021/11/12 11:40:57;;;;;;;33.55;22.90;;;9.50;99.90;;;;;;5019849;28;20272;-85
2021/11/12 11:43:25;;;;;;;34.55;22.13;;;9.50;99.90;;;;;;5003540;28;20209;-83
2021/11/12 11:45:56;;;;;;;34.65;22.02;;;9.60;99.90;;;;;;5020136;28;20205;-84
2021/11/12 11:48:24;;;;;;;36.80;24.13;;;9.80;99.90;;;;;;4986902;28;20225;-85
2021/11/12 11:51:34;;;;;;;37.30;23.63;;;9.70;99.90;;;;;;5019244;28;20562;-87
2021/11/12 11:54:11;;;;;;;33.17;24.63;;;9.80;99.90;;;;;;5017403;28;20233;-85
2021/11/12 11:56:42;;;;;;;44.70;23.42;;;9.80;99.90;;;;;;5016299;28;20443;-84
2021/11/12 11:59:18;;;;;;;37.72;21.42;;;9.80;99.90;;;;;;5019736;28;20213;-86
2021/11/12 12:01:52;;;;;;;42.47;25.00;;;9.60;99.90;;;;;;5013891;28;20294;-84
2021/11/12 12:04:20;;;;;;;38.20;22.98;;;9.60;99.90;;;;;;5016309;28;20254;-83
2021/11/12 12:07:02;;;;;;;39.92;24.60;;;9.70;99.90;;;;;;5002457;28;20224;-85
2021/11/12 12:10:00;;;;;;;38.38;24.75;;;9.40;99.90;;;;;;5021007;28;20352;-85
2021/11/12 12:12:30;;;;;;;42.72;22.60;;;9.20;99.90;;;;;;5001771;28;20207;-83
2021/11/12 12:15:05;;;;;;;35.45;22.23;;;9.20;99.90;;;;;;5020576;28;20304;-82
2021/11/12 12:17:35;;;;;;;35.75;22.33;;;9.40;99.90;;;;;;5018682;28;20209;-83
2021/11/12 12:20:21;;;;;;;35.70;22.90;;;9.40;99.90;;;;;;5021384;28;20212;-84
2021/11/12 12:34:38;;;;;;;31.88;21.63;;;9.00;99.90;;;;;;5020727;28;20205;-83
2021/11/12 13:25:55;;;;;;;40.33;24.00;;;8.30;99.90;;;;;;5018834;28;20272;-83
2021/11/12 13:28:30;;;;;;;38.72;25.70;;;8.00;99.90;;;;;;5018766;28;20222;-83
2021/11/12 13:31:05;;;;;;;40.17;24.98;;;8.00;99.90;;;;;;5023177;28;20196;-82
2021/11/12 13:33:50;;;;;;;44.58;26.80;;;8.00;99.90;;;;;;5008419;28;20561;-83
2021/11/12 13:36:34;;;;;;;41.58;25.15;;;8.10;99.90;;;;;;5024854;28;20287;-83
2021/11/12 13:39:02;;;;;;;44.08;27.60;;;8.10;99.90;;;;;;5006761;28;20258;-81
2021/11/12 13:41:34;;;;;;;42.97;26.05;;;8.00;99.90;;;;;;5007566;28;20235;-82
2021/11/12 13:44:11;;;;;;;46.25;24.90;;;7.90;99.90;;;;;;5024053;28;20205;-84
2021/11/12 13:47:02;;;;;;;41.17;24.50;;;7.90;99.90;;;;;;5018860;28;20224;-84
2021/11/12 13:49:40;;;;;;;40.85;25.55;;;7.80;99.90;;;;;;5023355;28;20519;-83
2021/11/12 13:52:12;;;;;;;42.30;24.92;;;7.90;99.90;;;;;;5006884;28;20201;-83
2021/11/12 13:54:44;;;;;;;40.75;24.35;;;7.90;99.90;;;;;;5022728;28;20199;-83
2021/11/12 13:57:18;;;;;;;40.17;21.90;;;7.80;99.90;;;;;;5006696;28;20201;-83
2021/11/12 13:59:58;;;;;;;39.33;25.35;;;7.80;99.90;;;;;;5024362;28;20201;-84
2021/11/12 14:02:28;;;;;;;38.72;22.10;;;7.80;99.90;;;;;;5010651;28;20355;-82
2021/11/12 14:05:10;;;;;;;40.70;24.77;;;7.80;99.90;;;;;;5005919;28;20205;-84
2021/11/12 14:07:38;;;;;;;40.53;24.95;;;7.80;99.90;;;;;;5008347;28;20418;-82
2021/11/12 14:10:14;;;;;;;41.28;24.67;;;7.90;99.90;;;;;;5009179;28;20201;-83
2021/11/12 14:12:53;;;;;;;39.13;25.20;;;8.10;99.90;;;;;;5024349;28;20276;-84
2021/11/12 14:15:28;;;;;;;39.55;23.42;;;8.10;99.90;;;;;;5023426;28;20364;-82
2021/11/12 14:21:16;;;;;;;35.70;21.80;;;7.70;99.90;;;;;;5022551;28;20247;-82
2021/11/12 14:24:02;;;;;;;40.38;23.23;;;7.60;99.90;;;;;;5020111;28;20203;-82
2021/11/12 14:26:49;;;;;;;36.60;23.10;;;7.60;99.90;;;;;;5007121;28;20290;-81
2021/11/12 14:37:56;;;;;;;42.13;24.98;;;7.70;99.90;;;;;;5022705;28;20201;-84
2021/11/12 14:45:56;;;;;;;38.90;20.85;;;7.50;99.90;;;;;;5008686;28;20219;-81
2021/11/12 14:56:11;;;;;;;38.30;21.63;;;7.30;99.90;;;;;;5022959;28;20201;-85
2021/11/12 14:58:42;;;;;;;41.28;22.25;;;7.30;99.90;;;;;;5023477;28;20205;-82
2021/11/12 15:01:16;;;;;;;36.50;21.67;;;7.20;99.90;;;;;;5018680;28;20208;-83
2021/11/12 15:03:45;;;;;;;42.05;22.27;;;7.20;99.90;;;;;;5016514;28;20544;-83
2021/11/12 15:06:19;;;;;;;42.30;25.80;;;7.20;99.90;;;;;;5019424;28;20284;-83
2021/11/12 15:11:17;;;;;;;35.13;21.67;;;7.20;99.90;;;;;;5021893;28;20321;-82
2021/11/12 15:13:45;;;;;;;46.72;22.27;;;7.10;99.90;;;;;;4995383;28;20205;-82
2021/11/12 15:16:22;;;;;;;47.22;23.92;;;7.00;99.90;;;;;;5021346;28;20212;-82
2021/11/12 15:18:52;;;;;;;46.85;25.13;;;7.00;99.90;;;;;;5015238;28;20241;-85
2021/11/12 15:21:25;;;;;;;42.33;26.77;;;7.00;99.90;;;;;;5001847;28;20399;-83
2021/11/12 15:31:46;;;;;;;47.42;27.17;;;7.10;99.90;;;;;;5022232;28;20205;-83
2021/11/12 15:34:14;;;;;;;52.92;24.73;;;7.10;99.90;;;;;;5014727;28;20208;-83
2021/11/12 15:37:27;;;;;;;54.08;30.85;;;7.10;99.90;;;;;;4998647;28;20197;-84
2021/11/12 15:44:34;;;;;;;49.30;28.17;;;7.00;99.90;;;;;;5013797;28;20435;-84
2021/11/12 15:49:36;;;;;;;53.15;32.70;;;7.00;99.90;;;;;;5014960;28;20242;-83
2021/11/12 16:03:11;;;;;;;59.45;34.78;;;7.10;99.90;;;;;;4997532;28;20491;-82
2021/11/12 16:08:43;;;;;;;72.25;32.92;;;7.00;99.90;;;;;;4968404;28;20440;-83
2021/11/12 16:18:51;;;;;;;65.22;35.17;;;6.90;99.90;;;;;;5013447;28;20464;-84
2021/11/12 16:21:34;;;;;;;62.97;35.88;;;7.00;99.90;;;;;;5014658;28;20291;-85
2021/11/12 16:24:25;;;;;;;67.13;35.90;;;7.00;99.90;;;;;;5014825;28;20272;-83
2021/11/12 16:26:58;;;;;;;72.22;36.10;;;7.00;99.90;;;;;;4999193;28;20208;-82
2021/11/12 16:32:10;;;;;;;77.80;37.40;;;6.90;99.90;;;;;;5019296;28;20528;-84
2021/11/12 16:34:43;;;;;;;73.80;37.67;;;6.90;99.90;;;;;;5002817;28;20487;-84
2021/11/12 16:37:13;;;;;;;71.15;36.25;;;6.80;99.90;;;;;;5003823;28;20220;-84
2021/11/12 16:39:46;;;;;;;80.40;36.85;;;6.90;99.90;;;;;;5001684;28;20395;-82
2021/11/12 16:48:29;;;;;;;88.72;40.35;;;7.00;99.90;;;;;;5011935;28;20250;-83
2021/11/12 16:50:42;;;;;;;85.85;39.45;;;6.90;99.90;;;;;;5013916;28;20499;-83
2021/11/12 18:05:34;;;;;;;53.13;26.50;;;6.50;99.90;;;;;;5018831;28;20273;-81
2021/11/12 18:16:55;;;;;;;53.92;27.63;;;6.50;99.90;;;;;;5016257;28;20234;-83
2021/11/12 18:22:21;;;;;;;58.95;29.23;;;6.50;99.90;;;;;;5017148;28;20501;-83
2021/11/12 21:48:37;;;;;;;40.58;20.05;;;6.70;99.90;;;;;;5015056;28;20574;-83
2021/11/12 21:51:06;;;;;;;32.97;20.73;;;6.70;99.90;;;;;;5020782;28;20259;-81
2021/11/12 21:53:34;;;;;;;35.35;20.50;;;6.60;99.90;;;;;;5015608;28;20224;-81
2021/11/12 21:56:04;;;;;;;43.03;21.35;;;6.60;99.90;;;;;;5016611;28;20201;-82
2021/11/12 21:58:32;;;;;;;35.13;20.95;;;6.70;99.90;;;;;;5003743;28;20248;-82
2021/11/12 22:01:02;;;;;;;34.42;18.77;;;6.60;99.90;;;;;;5017686;28;20247;-80
2021/11/12 22:03:30;;;;;;;34.60;19.75;;;6.60;99.90;;;;;;5020388;28;20220;-82
2021/11/12 22:05:59;;;;;;;42.83;18.40;;;6.60;99.90;;;;;;5003967;28;20505;-81
2021/11/12 22:08:28;;;;;;;46.20;24.48;;;6.60;99.90;;;;;;5022188;28;20204;-81
2021/11/12 22:11:01;;;;;;;42.15;22.42;;;6.60;99.90;;;;;;5018267;28;20245;-80
2021/11/12 22:13:29;;;;;;;36.70;20.42;;;6.50;99.90;;;;;;5018463;28;20204;-83
2021/11/12 22:15:57;;;;;;;37.47;19.27;;;6.60;99.90;;;;;;5015931;28;20209;-82
2021/11/12 22:18:25;;;;;;;34.15;18.10;;;6.60;99.90;;;;;;5015758;28;20369;-80
2021/11/12 22:20:53;;;;;;;37.28;18.90;;;6.70;99.90;;;;;;5020764;28;20266;-80
2021/11/12 22:23:21;;;;;;;28.23;18.05;;;6.60;99.90;;;;;;5012902;28;20204;-81
2021/11/12 22:25:49;;;;;;;33.20;19.20;;;6.50;99.90;;;;;;5018102;28;20400;-81
2021/11/12 22:28:17;;;;;;;29.70;18.00;;;6.50;99.90;;;;;;5012819;28;20422;-80
2021/11/12 22:30:45;;;;;;;33.30;18.55;;;6.40;99.90;;;;;;5012511;28;20233;-81
2021/11/12 22:33:13;;;;;;;32.33;19.63;;;6.30;99.90;;;;;;4999613;28;20496;-80
2021/11/12 22:35:40;;;;;;;35.15;17.52;;;6.30;99.90;;;;;;5017533;28;20549;-81
2021/11/12 22:38:09;;;;;;;29.25;18.10;;;6.30;99.90;;;;;;5022145;28;20201;-83
2021/11/12 22:40:42;;;;;;;36.45;20.80;;;6.20;99.90;;;;;;5022937;28;20517;-81
2021/11/12 22:43:10;;;;;;;33.90;17.75;;;6.20;99.90;;;;;;5022075;28;20213;-83
2021/11/12 22:45:37;;;;;;;33.10;19.50;;;6.10;99.90;;;;;;5023922;28;20207;-81
2021/11/12 22:48:06;;;;;;;36.75;22.73;;;6.10;99.90;;;;;;5023606;28;20215;-82
2021/11/12 22:50:36;;;;;;;35.85;16.33;;;6.00;99.90;;;;;;5023510;28;20228;-83
2021/11/12 22:53:05;;;;;;;31.77;19.05;;;6.00;99.90;;;;;;5022267;28;20514;-81
2021/11/12 22:55:33;;;;;;;32.28;17.60;;;6.00;99.90;;;;;;5023401;28;20257;-82
2021/11/12 22:58:00;;;;;;;36.20;19.35;;;6.00;99.90;;;;;;5005528;28;20203;-79
2021/11/12 23:00:31;;;;;;;38.88;18.65;;;6.00;99.90;;;;;;5022250;28;20212;-81
2021/11/12 23:02:59;;;;;;;34.08;18.48;;;6.10;99.90;;;;;;5021671;28;20517;-81
2021/11/12 23:05:27;;;;;;;33.25;19.50;;;6.20;99.90;;;;;;4997485;28;20203;-80
2021/11/12 23:07:54;;;;;;;48.25;22.52;;;6.10;99.90;;;;;;5021578;28;20263;-81